sensor_id;sensor_type;location;lat;lon;timestamp;P1;durP1;ratioP1;P2;durP2;ratioP2
35326;SDS011;21436;52.348;20.928;2023-07-13T00:01:55;21.33;;;15.32;;
35326;SDS011;21436;52.348;20.928;2023-07-13T00:04:24;20.88;;;15.60;;
35326;SDS011;21436;52.348;20.928;2023-07-13T00:06:56;19.60;;;14.52;;
35326;SDS011;21436;52.348;20.928;2023-07-13T00:09:24;22.75;;;15.57;;
35326;SDS011;21436;52.348;20.928;2023-07-13T00:11:54;19.17;;;14.13;;
35326;SDS011;21436;52.348;20.928;2023-07-13T00:14:24;23.13;;;15.37;;
35326;SDS011;21436;52.348;20.928;2023-07-13T00:16:52;19.35;;;14.43;;
35326;SDS011;21436;52.348;20.928;2023-07-13T00:19:20;19.85;;;14.57;;
35326;SDS011;21436;52.348;20.928;2023-07-13T00:21:48;20.13;;;14.98;;
35326;SDS011;21436;52.348;20.928;2023-07-13T00:24:16;24.88;;;14.55;;
35326;SDS011;21436;52.348;20.928;2023-07-13T00:26:51;17.50;;;13.65;;
35326;SDS011;21436;52.348;20.928;2023-07-13T00:29:19;21.63;;;14.02;;
35326;SDS011;21436;52.348;20.928;2023-07-13T00:31:48;20.13;;;14.90;;
35326;SDS011;21436;52.348;20.928;2023-07-13T00:34:16;20.20;;;15.18;;
35326;SDS011;21436;52.348;20.928;2023-07-13T00:36:43;23.08;;;14.80;;
35326;SDS011;21436;52.348;20.928;2023-07-13T00:39:12;23.13;;;15.07;;
35326;SDS011;21436;52.348;20.928;2023-07-13T00:41:39;22.13;;;16.10;;
35326;SDS011;21436;52.348;20.928;2023-07-13T00:44:10;23.70;;;15.88;;
35326;SDS011;21436;52.348;20.928;2023-07-13T00:46:41;23.38;;;16.40;;
35326;SDS011;21436;52.348;20.928;2023-07-13T00:49:10;21.05;;;15.00;;
35326;SDS011;21436;52.348;20.928;2023-07-13T00:54:21;20.50;;;15.45;;
35326;SDS011;21436;52.348;20.928;2023-07-13T00:56:51;21.50;;;16.13;;
35326;SDS011;21436;52.348;20.928;2023-07-13T00:59:20;22.05;;;15.48;;
35326;SDS011;21436;52.348;20.928;2023-07-13T01:01:48;21.45;;;15.48;;
35326;SDS011;21436;52.348;20.928;2023-07-13T01:04:16;19.45;;;14.55;;
35326;SDS011;21436;52.348;20.928;2023-07-13T01:06:45;33.30;;;16.35;;
35326;SDS011;21436;52.348;20.928;2023-07-13T01:09:14;20.20;;;14.52;;
35326;SDS011;21436;52.348;20.928;2023-07-13T01:11:42;19.67;;;15.02;;
35326;SDS011;21436;52.348;20.928;2023-07-13T01:14:12;23.83;;;15.02;;
35326;SDS011;21436;52.348;20.928;2023-07-13T01:16:45;23.98;;;15.65;;
35326;SDS011;21436;52.348;20.928;2023-07-13T01:21:52;22.25;;;15.25;;
35326;SDS011;21436;52.348;20.928;2023-07-13T01:24:20;22.58;;;15.30;;
35326;SDS011;21436;52.348;20.928;2023-07-13T01:26:48;21.60;;;15.13;;
35326;SDS011;21436;52.348;20.928;2023-07-13T01:29:16;26.02;;;15.30;;
35326;SDS011;21436;52.348;20.928;2023-07-13T01:31:43;19.88;;;14.65;;
35326;SDS011;21436;52.348;20.928;2023-07-13T01:34:11;20.48;;;14.50;;
35326;SDS011;21436;52.348;20.928;2023-07-13T01:36:39;21.17;;;15.23;;
35326;SDS011;21436;52.348;20.928;2023-07-13T01:39:07;25.17;;;15.80;;
35326;SDS011;21436;52.348;20.928;2023-07-13T01:41:34;21.10;;;15.00;;
35326;SDS011;21436;52.348;20.928;2023-07-13T01:44:02;23.33;;;15.88;;
35326;SDS011;21436;52.348;20.928;2023-07-13T01:46:30;22.90;;;15.75;;
35326;SDS011;21436;52.348;20.928;2023-07-13T01:48:58;22.05;;;14.70;;
35326;SDS011;21436;52.348;20.928;2023-07-13T01:51:25;23.85;;;15.85;;
35326;SDS011;21436;52.348;20.928;2023-07-13T01:53:53;22.25;;;16.35;;
35326;SDS011;21436;52.348;20.928;2023-07-13T01:56:20;22.50;;;15.07;;
35326;SDS011;21436;52.348;20.928;2023-07-13T01:58:48;24.13;;;15.50;;
35326;SDS011;21436;52.348;20.928;2023-07-13T02:01:15;22.48;;;15.85;;
35326;SDS011;21436;52.348;20.928;2023-07-13T02:03:43;21.02;;;15.00;;
35326;SDS011;21436;52.348;20.928;2023-07-13T02:06:10;21.02;;;14.52;;
35326;SDS011;21436;52.348;20.928;2023-07-13T02:08:40;23.45;;;15.70;;
35326;SDS011;21436;52.348;20.928;2023-07-13T02:11:08;23.08;;;16.40;;
35326;SDS011;21436;52.348;20.928;2023-07-13T02:13:36;22.05;;;16.15;;
35326;SDS011;21436;52.348;20.928;2023-07-13T02:16:03;24.13;;;16.38;;
35326;SDS011;21436;52.348;20.928;2023-07-13T02:18:31;25.55;;;17.10;;
35326;SDS011;21436;52.348;20.928;2023-07-13T02:20:58;24.10;;;16.27;;
35326;SDS011;21436;52.348;20.928;2023-07-13T02:23:26;24.83;;;16.50;;
35326;SDS011;21436;52.348;20.928;2023-07-13T02:25:57;23.40;;;16.00;;
35326;SDS011;21436;52.348;20.928;2023-07-13T02:28:25;21.77;;;15.95;;
35326;SDS011;21436;52.348;20.928;2023-07-13T02:30:52;25.48;;;16.10;;
35326;SDS011;21436;52.348;20.928;2023-07-13T02:33:20;23.50;;;16.15;;
35326;SDS011;21436;52.348;20.928;2023-07-13T02:35:48;26.88;;;17.27;;
35326;SDS011;21436;52.348;20.928;2023-07-13T02:38:15;25.40;;;17.55;;
35326;SDS011;21436;52.348;20.928;2023-07-13T02:40:42;23.27;;;17.38;;
35326;SDS011;21436;52.348;20.928;2023-07-13T02:43:12;27.98;;;18.50;;
35326;SDS011;21436;52.348;20.928;2023-07-13T02:45:43;24.52;;;18.17;;
35326;SDS011;21436;52.348;20.928;2023-07-13T02:48:13;27.23;;;18.98;;
35326;SDS011;21436;52.348;20.928;2023-07-13T02:50:40;28.17;;;19.25;;
35326;SDS011;21436;52.348;20.928;2023-07-13T02:53:08;26.48;;;17.75;;
35326;SDS011;21436;52.348;20.928;2023-07-13T02:55:35;29.40;;;18.17;;
35326;SDS011;21436;52.348;20.928;2023-07-13T02:58:03;25.52;;;18.70;;
35326;SDS011;21436;52.348;20.928;2023-07-13T03:00:30;26.27;;;19.05;;
35326;SDS011;21436;52.348;20.928;2023-07-13T03:02:58;26.10;;;18.60;;
35326;SDS011;21436;52.348;20.928;2023-07-13T03:05:27;27.02;;;17.60;;
35326;SDS011;21436;52.348;20.928;2023-07-13T03:07:56;25.08;;;16.38;;
35326;SDS011;21436;52.348;20.928;2023-07-13T03:10:24;22.67;;;15.55;;
35326;SDS011;21436;52.348;20.928;2023-07-13T03:12:53;24.23;;;15.63;;
35326;SDS011;21436;52.348;20.928;2023-07-13T03:15:23;23.65;;;16.23;;
35326;SDS011;21436;52.348;20.928;2023-07-13T03:17:53;22.02;;;14.40;;
35326;SDS011;21436;52.348;20.928;2023-07-13T03:20:20;21.95;;;15.25;;
35326;SDS011;21436;52.348;20.928;2023-07-13T03:22:48;23.77;;;15.57;;
35326;SDS011;21436;52.348;20.928;2023-07-13T03:25:17;23.30;;;16.65;;
35326;SDS011;21436;52.348;20.928;2023-07-13T03:27:45;23.25;;;16.60;;
35326;SDS011;21436;52.348;20.928;2023-07-13T03:30:12;22.63;;;16.45;;
35326;SDS011;21436;52.348;20.928;2023-07-13T03:32:42;23.88;;;16.52;;
35326;SDS011;21436;52.348;20.928;2023-07-13T03:35:09;22.38;;;15.75;;
35326;SDS011;21436;52.348;20.928;2023-07-13T03:37:37;20.65;;;14.65;;
35326;SDS011;21436;52.348;20.928;2023-07-13T03:40:14;22.10;;;14.77;;
35326;SDS011;21436;52.348;20.928;2023-07-13T03:42:44;21.90;;;15.45;;
35326;SDS011;21436;52.348;20.928;2023-07-13T03:45:14;21.77;;;15.68;;
35326;SDS011;21436;52.348;20.928;2023-07-13T03:47:42;22.13;;;16.20;;
35326;SDS011;21436;52.348;20.928;2023-07-13T03:50:10;23.42;;;15.85;;
35326;SDS011;21436;52.348;20.928;2023-07-13T03:52:38;25.45;;;17.30;;
35326;SDS011;21436;52.348;20.928;2023-07-13T03:55:05;24.55;;;16.30;;
35326;SDS011;21436;52.348;20.928;2023-07-13T03:57:34;25.00;;;15.88;;
35326;SDS011;21436;52.348;20.928;2023-07-13T04:00:05;27.40;;;16.65;;
35326;SDS011;21436;52.348;20.928;2023-07-13T04:02:41;26.67;;;18.80;;
35326;SDS011;21436;52.348;20.928;2023-07-13T04:05:09;22.17;;;16.05;;
35326;SDS011;21436;52.348;20.928;2023-07-13T04:07:37;23.63;;;17.08;;
35326;SDS011;21436;52.348;20.928;2023-07-13T04:10:06;24.60;;;17.33;;
35326;SDS011;21436;52.348;20.928;2023-07-13T04:12:33;21.80;;;16.90;;
35326;SDS011;21436;52.348;20.928;2023-07-13T04:15:01;25.25;;;16.98;;
35326;SDS011;21436;52.348;20.928;2023-07-13T04:17:29;20.70;;;14.57;;
35326;SDS011;21436;52.348;20.928;2023-07-13T04:19:56;21.25;;;15.65;;
35326;SDS011;21436;52.348;20.928;2023-07-13T04:22:24;24.63;;;17.17;;
35326;SDS011;21436;52.348;20.928;2023-07-13T04:24:51;24.45;;;17.83;;
35326;SDS011;21436;52.348;20.928;2023-07-13T04:27:19;24.00;;;17.63;;
35326;SDS011;21436;52.348;20.928;2023-07-13T04:29:47;26.70;;;18.95;;
35326;SDS011;21436;52.348;20.928;2023-07-13T04:35:09;26.17;;;18.20;;
35326;SDS011;21436;52.348;20.928;2023-07-13T04:37:37;24.75;;;16.35;;
35326;SDS011;21436;52.348;20.928;2023-07-13T04:40:04;21.83;;;15.82;;
35326;SDS011;21436;52.348;20.928;2023-07-13T04:42:33;23.00;;;17.17;;
35326;SDS011;21436;52.348;20.928;2023-07-13T04:45:01;20.90;;;14.73;;
35326;SDS011;21436;52.348;20.928;2023-07-13T04:47:32;28.33;;;16.65;;
35326;SDS011;21436;52.348;20.928;2023-07-13T04:49:59;22.13;;;16.23;;
35326;SDS011;21436;52.348;20.928;2023-07-13T04:52:27;22.67;;;17.15;;
35326;SDS011;21436;52.348;20.928;2023-07-13T04:54:54;21.10;;;15.18;;
35326;SDS011;21436;52.348;20.928;2023-07-13T04:57:22;23.35;;;16.00;;
35326;SDS011;21436;52.348;20.928;2023-07-13T04:59:49;22.77;;;15.45;;
35326;SDS011;21436;52.348;20.928;2023-07-13T05:02:17;21.83;;;15.57;;
35326;SDS011;21436;52.348;20.928;2023-07-13T05:04:47;23.95;;;16.02;;
35326;SDS011;21436;52.348;20.928;2023-07-13T05:07:15;24.10;;;16.00;;
35326;SDS011;21436;52.348;20.928;2023-07-13T05:09:42;21.88;;;15.73;;
35326;SDS011;21436;52.348;20.928;2023-07-13T05:12:10;22.15;;;15.05;;
35326;SDS011;21436;52.348;20.928;2023-07-13T05:14:37;20.33;;;15.13;;
35326;SDS011;21436;52.348;20.928;2023-07-13T05:17:05;24.70;;;16.38;;
35326;SDS011;21436;52.348;20.928;2023-07-13T05:19:32;26.10;;;17.35;;
35326;SDS011;21436;52.348;20.928;2023-07-13T05:22:00;23.63;;;16.60;;
35326;SDS011;21436;52.348;20.928;2023-07-13T05:24:27;20.42;;;15.20;;
35326;SDS011;21436;52.348;20.928;2023-07-13T05:26:55;24.30;;;16.85;;
35326;SDS011;21436;52.348;20.928;2023-07-13T05:29:22;22.52;;;17.15;;
35326;SDS011;21436;52.348;20.928;2023-07-13T05:31:50;23.65;;;17.10;;
35326;SDS011;21436;52.348;20.928;2023-07-13T05:34:17;24.35;;;16.70;;
35326;SDS011;21436;52.348;20.928;2023-07-13T05:36:45;25.15;;;17.77;;
35326;SDS011;21436;52.348;20.928;2023-07-13T05:39:12;23.35;;;16.27;;
35326;SDS011;21436;52.348;20.928;2023-07-13T05:41:40;27.10;;;17.17;;
35326;SDS011;21436;52.348;20.928;2023-07-13T05:44:07;24.40;;;16.88;;
35326;SDS011;21436;52.348;20.928;2023-07-13T05:46:35;25.30;;;18.13;;
35326;SDS011;21436;52.348;20.928;2023-07-13T05:49:02;23.63;;;17.48;;
35326;SDS011;21436;52.348;20.928;2023-07-13T05:51:30;26.48;;;17.77;;
35326;SDS011;21436;52.348;20.928;2023-07-13T05:53:58;26.45;;;19.10;;
35326;SDS011;21436;52.348;20.928;2023-07-13T05:56:26;26.55;;;18.00;;
35326;SDS011;21436;52.348;20.928;2023-07-13T05:58:53;23.55;;;17.55;;
35326;SDS011;21436;52.348;20.928;2023-07-13T06:01:21;26.00;;;18.40;;
35326;SDS011;21436;52.348;20.928;2023-07-13T06:03:49;23.30;;;18.65;;
35326;SDS011;21436;52.348;20.928;2023-07-13T06:06:17;29.00;;;19.75;;
35326;SDS011;21436;52.348;20.928;2023-07-13T06:08:44;25.77;;;17.75;;
35326;SDS011;21436;52.348;20.928;2023-07-13T06:11:13;24.65;;;17.35;;
35326;SDS011;21436;52.348;20.928;2023-07-13T06:13:43;27.80;;;18.08;;
35326;SDS011;21436;52.348;20.928;2023-07-13T06:16:11;23.77;;;16.58;;
35326;SDS011;21436;52.348;20.928;2023-07-13T06:18:39;30.45;;;19.20;;
35326;SDS011;21436;52.348;20.928;2023-07-13T06:23:39;24.88;;;18.05;;
35326;SDS011;21436;52.348;20.928;2023-07-13T06:26:06;24.42;;;18.17;;
35326;SDS011;21436;52.348;20.928;2023-07-13T06:28:35;23.13;;;17.20;;
35326;SDS011;21436;52.348;20.928;2023-07-13T06:31:05;26.13;;;17.73;;
35326;SDS011;21436;52.348;20.928;2023-07-13T06:33:33;23.90;;;16.80;;
35326;SDS011;21436;52.348;20.928;2023-07-13T06:36:02;23.45;;;16.23;;
35326;SDS011;21436;52.348;20.928;2023-07-13T06:38:30;18.70;;;15.23;;
35326;SDS011;21436;52.348;20.928;2023-07-13T06:40:58;21.80;;;16.08;;
35326;SDS011;21436;52.348;20.928;2023-07-13T06:43:25;24.08;;;15.93;;
35326;SDS011;21436;52.348;20.928;2023-07-13T06:45:54;19.85;;;14.60;;
35326;SDS011;21436;52.348;20.928;2023-07-13T06:48:22;20.38;;;13.50;;
35326;SDS011;21436;52.348;20.928;2023-07-13T06:50:50;18.42;;;12.38;;
35326;SDS011;21436;52.348;20.928;2023-07-13T06:53:19;20.15;;;12.38;;
35326;SDS011;21436;52.348;20.928;2023-07-13T06:55:47;21.08;;;13.05;;
35326;SDS011;21436;52.348;20.928;2023-07-13T06:58:15;22.05;;;13.20;;
35326;SDS011;21436;52.348;20.928;2023-07-13T07:00:44;16.65;;;9.02;;
35326;SDS011;21436;52.348;20.928;2023-07-13T07:03:11;13.45;;;7.90;;
35326;SDS011;21436;52.348;20.928;2023-07-13T07:05:40;11.45;;;7.07;;
35326;SDS011;21436;52.348;20.928;2023-07-13T07:08:07;11.57;;;7.50;;
35326;SDS011;21436;52.348;20.928;2023-07-13T07:10:35;12.40;;;8.07;;
35326;SDS011;21436;52.348;20.928;2023-07-13T07:13:03;10.07;;;7.45;;
35326;SDS011;21436;52.348;20.928;2023-07-13T07:15:31;9.90;;;6.90;;
35326;SDS011;21436;52.348;20.928;2023-07-13T07:17:59;8.32;;;6.05;;
35326;SDS011;21436;52.348;20.928;2023-07-13T07:20:27;7.93;;;5.63;;
35326;SDS011;21436;52.348;20.928;2023-07-13T07:22:54;8.55;;;5.57;;
35326;SDS011;21436;52.348;20.928;2023-07-13T07:25:22;16.27;;;6.03;;
35326;SDS011;21436;52.348;20.928;2023-07-13T07:27:49;9.65;;;6.22;;
35326;SDS011;21436;52.348;20.928;2023-07-13T07:30:20;14.68;;;5.95;;
35326;SDS011;21436;52.348;20.928;2023-07-13T07:32:50;17.63;;;7.22;;
35326;SDS011;21436;52.348;20.928;2023-07-13T07:35:21;13.68;;;7.82;;
35326;SDS011;21436;52.348;20.928;2023-07-13T07:37:48;19.10;;;8.13;;
35326;SDS011;21436;52.348;20.928;2023-07-13T07:40:18;12.98;;;7.25;;
35326;SDS011;21436;52.348;20.928;2023-07-13T07:42:48;8.60;;;5.03;;
35326;SDS011;21436;52.348;20.928;2023-07-13T07:45:16;8.52;;;4.63;;
35326;SDS011;21436;52.348;20.928;2023-07-13T07:47:43;5.75;;;4.93;;
35326;SDS011;21436;52.348;20.928;2023-07-13T07:50:11;11.80;;;5.90;;
35326;SDS011;21436;52.348;20.928;2023-07-13T07:52:40;6.60;;;5.18;;
35326;SDS011;21436;52.348;20.928;2023-07-13T07:55:08;12.90;;;6.22;;
35326;SDS011;21436;52.348;20.928;2023-07-13T07:57:38;9.25;;;6.18;;
35326;SDS011;21436;52.348;20.928;2023-07-13T08:00:09;8.77;;;5.80;;
35326;SDS011;21436;52.348;20.928;2023-07-13T08:02:42;8.60;;;6.05;;
35326;SDS011;21436;52.348;20.928;2023-07-13T08:05:13;13.07;;;7.35;;
35326;SDS011;21436;52.348;20.928;2023-07-13T08:07:44;8.85;;;5.75;;
35326;SDS011;21436;52.348;20.928;2023-07-13T08:10:12;8.52;;;5.40;;
35326;SDS011;21436;52.348;20.928;2023-07-13T08:12:39;8.68;;;5.70;;
35326;SDS011;21436;52.348;20.928;2023-07-13T08:15:12;8.63;;;5.20;;
35326;SDS011;21436;52.348;20.928;2023-07-13T08:17:41;10.07;;;5.95;;
35326;SDS011;21436;52.348;20.928;2023-07-13T08:20:09;8.82;;;5.72;;
35326;SDS011;21436;52.348;20.928;2023-07-13T08:22:36;10.70;;;6.55;;
35326;SDS011;21436;52.348;20.928;2023-07-13T08:25:04;8.65;;;5.72;;
35326;SDS011;21436;52.348;20.928;2023-07-13T08:27:33;8.25;;;5.97;;
35326;SDS011;21436;52.348;20.928;2023-07-13T08:30:01;9.05;;;5.78;;
35326;SDS011;21436;52.348;20.928;2023-07-13T08:32:28;9.68;;;5.38;;
35326;SDS011;21436;52.348;20.928;2023-07-13T08:34:56;9.60;;;5.88;;
35326;SDS011;21436;52.348;20.928;2023-07-13T08:37:24;8.40;;;5.35;;
35326;SDS011;21436;52.348;20.928;2023-07-13T08:39:51;7.82;;;5.63;;
35326;SDS011;21436;52.348;20.928;2023-07-13T08:42:31;11.68;;;5.78;;
35326;SDS011;21436;52.348;20.928;2023-07-13T08:47:49;6.57;;;5.20;;
35326;SDS011;21436;52.348;20.928;2023-07-13T08:50:22;9.93;;;5.47;;
35326;SDS011;21436;52.348;20.928;2023-07-13T08:52:53;6.85;;;4.85;;
35326;SDS011;21436;52.348;20.928;2023-07-13T08:55:25;8.90;;;5.38;;
35326;SDS011;21436;52.348;20.928;2023-07-13T08:57:59;10.00;;;5.80;;
35326;SDS011;21436;52.348;20.928;2023-07-13T09:00:33;6.93;;;3.53;;
35326;SDS011;21436;52.348;20.928;2023-07-13T09:03:04;6.05;;;4.10;;
35326;SDS011;21436;52.348;20.928;2023-07-13T09:05:33;5.88;;;4.43;;
35326;SDS011;21436;52.348;20.928;2023-07-13T09:08:09;7.28;;;4.63;;
35326;SDS011;21436;52.348;20.928;2023-07-13T09:10:58;5.65;;;4.28;;
35326;SDS011;21436;52.348;20.928;2023-07-13T09:16:19;2.90;;;2.30;;
35326;SDS011;21436;52.348;20.928;2023-07-13T09:18:48;4.07;;;2.83;;
35326;SDS011;21436;52.348;20.928;2023-07-13T09:21:18;2.55;;;2.35;;
35326;SDS011;21436;52.348;20.928;2023-07-13T09:23:52;3.33;;;2.85;;
35326;SDS011;21436;52.348;20.928;2023-07-13T09:26:51;4.38;;;2.63;;
35326;SDS011;21436;52.348;20.928;2023-07-13T09:29:29;4.22;;;2.40;;
35326;SDS011;21436;52.348;20.928;2023-07-13T09:32:03;5.22;;;2.72;;
35326;SDS011;21436;52.348;20.928;2023-07-13T09:34:33;5.03;;;3.38;;
35326;SDS011;21436;52.348;20.928;2023-07-13T09:37:01;4.57;;;3.03;;
35326;SDS011;21436;52.348;20.928;2023-07-13T09:39:33;5.50;;;3.15;;
35326;SDS011;21436;52.348;20.928;2023-07-13T09:42:16;4.43;;;3.35;;
35326;SDS011;21436;52.348;20.928;2023-07-13T09:44:55;4.10;;;2.92;;
35326;SDS011;21436;52.348;20.928;2023-07-13T09:47:27;4.00;;;3.20;;
35326;SDS011;21436;52.348;20.928;2023-07-13T09:49:59;4.32;;;3.47;;
35326;SDS011;21436;52.348;20.928;2023-07-13T09:55:31;4.35;;;3.30;;
35326;SDS011;21436;52.348;20.928;2023-07-13T09:58:04;5.22;;;3.70;;
35326;SDS011;21436;52.348;20.928;2023-07-13T10:03:26;6.22;;;3.92;;
35326;SDS011;21436;52.348;20.928;2023-07-13T10:05:55;5.85;;;4.43;;
35326;SDS011;21436;52.348;20.928;2023-07-13T10:08:30;5.03;;;3.83;;
35326;SDS011;21436;52.348;20.928;2023-07-13T10:11:00;5.88;;;3.90;;
35326;SDS011;21436;52.348;20.928;2023-07-13T10:13:35;8.23;;;4.00;;
35326;SDS011;21436;52.348;20.928;2023-07-13T10:16:04;8.75;;;4.28;;
35326;SDS011;21436;52.348;20.928;2023-07-13T10:18:47;5.88;;;4.38;;
35326;SDS011;21436;52.348;20.928;2023-07-13T10:21:20;5.95;;;4.60;;
35326;SDS011;21436;52.348;20.928;2023-07-13T10:23:56;6.65;;;4.60;;
35326;SDS011;21436;52.348;20.928;2023-07-13T10:26:29;7.60;;;5.35;;
35326;SDS011;21436;52.348;20.928;2023-07-13T10:29:02;8.20;;;5.03;;
35326;SDS011;21436;52.348;20.928;2023-07-13T10:31:31;8.70;;;4.15;;
35326;SDS011;21436;52.348;20.928;2023-07-13T10:34:00;5.88;;;3.78;;
35326;SDS011;21436;52.348;20.928;2023-07-13T10:36:31;7.57;;;4.65;;
35326;SDS011;21436;52.348;20.928;2023-07-13T10:39:00;6.10;;;4.63;;
35326;SDS011;21436;52.348;20.928;2023-07-13T10:41:30;8.25;;;4.38;;
35326;SDS011;21436;52.348;20.928;2023-07-13T10:44:01;6.18;;;5.00;;
35326;SDS011;21436;52.348;20.928;2023-07-13T10:46:30;5.65;;;4.80;;
35326;SDS011;21436;52.348;20.928;2023-07-13T10:48:59;29.15;;;8.18;;
35326;SDS011;21436;52.348;20.928;2023-07-13T10:51:29;12.63;;;5.18;;
35326;SDS011;21436;52.348;20.928;2023-07-13T10:56:45;11.43;;;5.55;;
35326;SDS011;21436;52.348;20.928;2023-07-13T11:04:42;10.95;;;5.50;;
35326;SDS011;21436;52.348;20.928;2023-07-13T11:10:02;7.85;;;5.07;;
35326;SDS011;21436;52.348;20.928;2023-07-13T11:15:28;11.25;;;5.88;;
35326;SDS011;21436;52.348;20.928;2023-07-13T11:18:02;9.63;;;5.47;;
35326;SDS011;21436;52.348;20.928;2023-07-13T11:20:38;11.32;;;6.50;;
35326;SDS011;21436;52.348;20.928;2023-07-13T11:25:40;16.25;;;5.82;;
35326;SDS011;21436;52.348;20.928;2023-07-13T11:30:39;6.95;;;5.93;;
35326;SDS011;21436;52.348;20.928;2023-07-13T11:35:53;7.10;;;5.63;;
35326;SDS011;21436;52.348;20.928;2023-07-13T11:38:35;8.48;;;5.25;;
35326;SDS011;21436;52.348;20.928;2023-07-13T11:41:14;11.88;;;6.55;;
35326;SDS011;21436;52.348;20.928;2023-07-13T11:43:43;9.10;;;6.38;;
35326;SDS011;21436;52.348;20.928;2023-07-13T11:46:12;20.55;;;7.70;;
35326;SDS011;21436;52.348;20.928;2023-07-13T11:48:45;15.35;;;8.35;;
35326;SDS011;21436;52.348;20.928;2023-07-13T11:51:21;12.65;;;8.25;;
35326;SDS011;21436;52.348;20.928;2023-07-13T11:53:50;10.18;;;7.78;;
35326;SDS011;21436;52.348;20.928;2023-07-13T11:56:20;11.13;;;7.47;;
35326;SDS011;21436;52.348;20.928;2023-07-13T11:58:51;9.13;;;7.45;;
35326;SDS011;21436;52.348;20.928;2023-07-13T12:01:22;11.20;;;7.85;;
35326;SDS011;21436;52.348;20.928;2023-07-13T12:03:52;10.93;;;7.38;;
35326;SDS011;21436;52.348;20.928;2023-07-13T12:09:12;11.00;;;7.40;;
35326;SDS011;21436;52.348;20.928;2023-07-13T12:11:43;12.70;;;8.52;;
35326;SDS011;21436;52.348;20.928;2023-07-13T12:14:17;14.15;;;8.68;;
35326;SDS011;21436;52.348;20.928;2023-07-13T12:16:46;10.60;;;7.43;;
35326;SDS011;21436;52.348;20.928;2023-07-13T12:19:18;12.02;;;8.43;;
35326;SDS011;21436;52.348;20.928;2023-07-13T12:21:49;14.75;;;7.85;;
35326;SDS011;21436;52.348;20.928;2023-07-13T12:24:18;9.88;;;7.20;;
35326;SDS011;21436;52.348;20.928;2023-07-13T12:27:06;8.60;;;6.70;;
35326;SDS011;21436;52.348;20.928;2023-07-13T12:29:58;10.00;;;6.97;;
35326;SDS011;21436;52.348;20.928;2023-07-13T12:32:27;10.25;;;6.80;;
35326;SDS011;21436;52.348;20.928;2023-07-13T12:34:56;9.30;;;6.30;;
35326;SDS011;21436;52.348;20.928;2023-07-13T12:37:33;9.30;;;6.20;;
35326;SDS011;21436;52.348;20.928;2023-07-13T12:40:02;10.05;;;6.25;;
35326;SDS011;21436;52.348;20.928;2023-07-13T12:42:32;8.40;;;6.10;;
35326;SDS011;21436;52.348;20.928;2023-07-13T12:45:22;12.13;;;6.63;;
35326;SDS011;21436;52.348;20.928;2023-07-13T12:47:57;10.57;;;6.90;;
35326;SDS011;21436;52.348;20.928;2023-07-13T12:50:29;8.40;;;6.28;;
35326;SDS011;21436;52.348;20.928;2023-07-13T12:53:29;6.25;;;4.78;;
35326;SDS011;21436;52.348;20.928;2023-07-13T12:55:59;9.70;;;6.50;;
35326;SDS011;21436;52.348;20.928;2023-07-13T12:58:34;11.80;;;6.53;;
35326;SDS011;21436;52.348;20.928;2023-07-13T13:01:09;10.77;;;5.82;;
35326;SDS011;21436;52.348;20.928;2023-07-13T13:03:41;12.93;;;7.93;;
35326;SDS011;21436;52.348;20.928;2023-07-13T13:08:48;11.77;;;7.18;;
35326;SDS011;21436;52.348;20.928;2023-07-13T13:11:17;10.18;;;6.40;;
35326;SDS011;21436;52.348;20.928;2023-07-13T13:13:45;20.23;;;8.30;;
35326;SDS011;21436;52.348;20.928;2023-07-13T13:18:54;9.30;;;7.18;;
35326;SDS011;21436;52.348;20.928;2023-07-13T13:21:24;10.32;;;6.85;;
35326;SDS011;21436;52.348;20.928;2023-07-13T13:23:53;11.18;;;7.07;;
35326;SDS011;21436;52.348;20.928;2023-07-13T13:26:21;9.98;;;7.28;;
35326;SDS011;21436;52.348;20.928;2023-07-13T13:28:49;10.00;;;6.15;;
35326;SDS011;21436;52.348;20.928;2023-07-13T13:31:17;9.95;;;7.05;;
35326;SDS011;21436;52.348;20.928;2023-07-13T13:33:45;12.40;;;7.57;;
35326;SDS011;21436;52.348;20.928;2023-07-13T13:36:16;13.38;;;7.85;;
35326;SDS011;21436;52.348;20.928;2023-07-13T13:38:45;11.23;;;7.85;;
35326;SDS011;21436;52.348;20.928;2023-07-13T13:41:13;17.25;;;8.27;;
35326;SDS011;21436;52.348;20.928;2023-07-13T13:43:41;10.48;;;7.60;;
35326;SDS011;21436;52.348;20.928;2023-07-13T13:46:13;22.23;;;17.00;;
35326;SDS011;21436;52.348;20.928;2023-07-13T13:48:45;24.30;;;18.40;;
35326;SDS011;21436;52.348;20.928;2023-07-13T13:51:16;13.02;;;8.75;;
35326;SDS011;21436;52.348;20.928;2023-07-13T13:53:46;16.65;;;8.77;;
35326;SDS011;21436;52.348;20.928;2023-07-13T13:56:15;12.48;;;8.85;;
35326;SDS011;21436;52.348;20.928;2023-07-13T13:58:43;13.38;;;8.75;;
35326;SDS011;21436;52.348;20.928;2023-07-13T14:01:17;14.25;;;8.13;;
35326;SDS011;21436;52.348;20.928;2023-07-13T14:03:46;15.95;;;8.23;;
35326;SDS011;21436;52.348;20.928;2023-07-13T14:06:18;13.73;;;8.88;;
35326;SDS011;21436;52.348;20.928;2023-07-13T14:08:46;19.80;;;9.40;;
35326;SDS011;21436;52.348;20.928;2023-07-13T14:11:14;13.45;;;9.18;;
35326;SDS011;21436;52.348;20.928;2023-07-13T14:13:45;16.50;;;9.40;;
35326;SDS011;21436;52.348;20.928;2023-07-13T14:16:26;12.73;;;9.82;;
35326;SDS011;21436;52.348;20.928;2023-07-13T14:18:56;13.27;;;9.35;;
35326;SDS011;21436;52.348;20.928;2023-07-13T14:21:27;17.58;;;10.93;;
35326;SDS011;21436;52.348;20.928;2023-07-13T14:23:56;16.67;;;11.10;;
35326;SDS011;21436;52.348;20.928;2023-07-13T14:26:24;18.95;;;11.20;;
35326;SDS011;21436;52.348;20.928;2023-07-13T14:28:54;15.02;;;10.52;;
35326;SDS011;21436;52.348;20.928;2023-07-13T14:31:23;15.70;;;11.23;;
35326;SDS011;21436;52.348;20.928;2023-07-13T14:33:56;19.98;;;11.48;;
35326;SDS011;21436;52.348;20.928;2023-07-13T14:38:54;14.88;;;9.65;;
35326;SDS011;21436;52.348;20.928;2023-07-13T14:41:23;16.60;;;9.23;;
35326;SDS011;21436;52.348;20.928;2023-07-13T14:43:51;14.45;;;8.82;;
35326;SDS011;21436;52.348;20.928;2023-07-13T14:46:29;15.65;;;9.80;;
35326;SDS011;21436;52.348;20.928;2023-07-13T14:49:03;13.85;;;9.10;;
35326;SDS011;21436;52.348;20.928;2023-07-13T14:51:33;17.60;;;9.82;;
35326;SDS011;21436;52.348;20.928;2023-07-13T14:54:02;14.35;;;10.63;;
35326;SDS011;21436;52.348;20.928;2023-07-13T14:56:31;16.33;;;10.18;;
35326;SDS011;21436;52.348;20.928;2023-07-13T14:58:59;13.82;;;10.02;;
35326;SDS011;21436;52.348;20.928;2023-07-13T15:01:26;13.63;;;9.95;;
35326;SDS011;21436;52.348;20.928;2023-07-13T15:03:54;15.23;;;9.90;;
35326;SDS011;21436;52.348;20.928;2023-07-13T15:06:22;15.45;;;10.00;;
35326;SDS011;21436;52.348;20.928;2023-07-13T15:08:50;12.90;;;10.07;;
35326;SDS011;21436;52.348;20.928;2023-07-13T15:11:17;12.95;;;10.00;;
35326;SDS011;21436;52.348;20.928;2023-07-13T15:13:45;15.80;;;9.32;;
35326;SDS011;21436;52.348;20.928;2023-07-13T15:16:17;13.80;;;9.57;;
35326;SDS011;21436;52.348;20.928;2023-07-13T15:18:47;14.25;;;9.77;;
35326;SDS011;21436;52.348;20.928;2023-07-13T15:21:18;13.73;;;9.43;;
35326;SDS011;21436;52.348;20.928;2023-07-13T15:23:48;13.00;;;9.82;;
35326;SDS011;21436;52.348;20.928;2023-07-13T15:26:17;13.60;;;9.20;;
35326;SDS011;21436;52.348;20.928;2023-07-13T15:28:46;11.70;;;9.13;;